Huvudsida
METAR-TAF:

METAR-TAF

Flygplatser :

Cibao International Airport

Santiago de los Caballeros, Dominikanska republiken

latitud: 19-27N, longitud: 070-42W, höjd: 183 m

Aktuellt väderrapport

Denna rapport gjordes för 24 minuter sedan, klockan 10:00 UTC
Vind 3 kt varierande vindriktning
Temperatur 23°C
Fuktighet 100%
Tryck 1014 hPa
Sikt 10 km eller mer
Spridda moln på en höjd av 1600 ft

METAR: MDST 241000Z VRB03KT 9999 SCT016 23/23 Q1014

Tid: 06:24 (10:24 UTC)

Väderprognos

Denna rapport gjordes för 6 timmar och 24 minuter sedan, klockan 04:00 UTC
Prognos gäller från 24 kl. 06 UTC till 25 kl. 06 UTC
Vind kt från nord
Sikt 10 km eller mer
Spridda moln på en höjd av 1600 ft
Sannolikhet 30%
från 24 kl. 06 UTC till 24 kl. 10 UTC
Sikt: 6000 m
Brutna moln på en höjd av 1600 ft
lätt regn

TAF: MDST 240400Z 2406/2506 00000KT 9999 SCT016 PROB30 2406/2410 6000 -RA BKN016

Aktuella väderrapporter och prognoser från 4000 flygplatser (METAR- och TAF-rapporter).

De tillgängliga stationerna syns som gula och röda prickar på kartan.

För musen över prickarna för att se namnen på stationerna.

Klicka sedan för att få väderrapporter och prognoser.

För att ändra kartan: Klicka på de gröna knapparna med ett svart kors på för att zooma in; den gröna knappen med ett streck på för att zooma ut; eller på de gröna pilarna för angränsande kartor.


METAR-TAF: